Big Bear Station Historical Data
Daily Summary for March 9, 2018 Units:  English    Metric   Both
Next Day »
Daily Weekly Monthly Yearly Custom
  High: Low: Average:
Temperature: 57.0 °F 30.6 °F 41.8 °F
Dew Point: 38.5 °F 26.6 °F 34.1 °F
Humidity: 92% 46% 76%
Wind Speed: 7.3mph 0.0mph 1.1mph
Wind Gust: -999.0mph - -
Wind- - WSW
Pressure: 23.49 in 23.43 in -
Precipitation: 0.00 in    
Historical Graphs
 
 
Tabular Data for March 9, 2018
Time Temperature Dew Point Pressure Wind Wind Speed Wind Gust Humidity Rainfall Rate (Hourly)
00:03 33.4 °F 26.6 °F 23.49 in Calm   -999.0 mph 76% 0 in
00:18 33.4 °F 27.3 °F 23.48 in Calm   -999.0 mph 78% 0 in
00:33 32.9 °F 27.4 °F 23.48 in Calm   -999.0 mph 80% 0 in
00:49 32.9 °F 27.4 °F 23.48 in WNW 1.7 mph -999.0 mph 80% 0 in
01:04 33.8 °F 28.0 °F 23.48 in Calm   -999.0 mph 79% 0 in
01:19 34.0 °F 28.5 °F 23.48 in Calm   -999.0 mph 80% 0 in
01:34 33.8 °F 28.3 °F 23.48 in Calm   -999.0 mph 80% 0 in
01:50 34.5 °F 29.0 °F 23.46 in Calm   -999.0 mph 80% 0 in
02:05 36.0 °F 29.8 °F 23.46 in Calm   -999.0 mph 78% 0 in
02:21 35.8 °F 29.9 °F 23.46 in Calm   -999.0 mph 79% 0 in
02:36 36.5 °F 30.0 °F 23.45 in Calm   -999.0 mph 77% 0 in
02:51 35.8 °F 29.3 °F 23.45 in Calm   -999.0 mph 77% 0 in
03:06 35.4 °F 29.5 °F 23.45 in Calm   -999.0 mph 79% 0 in
03:22 34.9 °F 29.4 °F 23.45 in Calm   -999.0 mph 80% 0 in
03:37 34.2 °F 29.3 °F 23.45 in Calm   -999.0 mph 82% 0 in
03:53 33.6 °F 29.0 °F 23.45 in Calm   -999.0 mph 83% 0 in
04:12 33.3 °F 29.0 °F 23.44 in Calm   -999.0 mph 84% 0 in
04:27 33.1 °F 29.4 °F 23.45 in Calm   -999.0 mph 86% 0 in
04:43 32.5 °F 28.5 °F 23.45 in Calm   -999.0 mph 85% 0 in
04:58 32.2 °F 28.2 °F 23.45 in Calm   -999.0 mph 85% 0 in
05:13 31.5 °F 28.1 °F 23.46 in Calm   -999.0 mph 87% 0 in
05:28 30.9 °F 27.5 °F 23.45 in Calm   -999.0 mph 87% 0 in
05:43 31.3 °F 28.4 °F 23.45 in Calm   -999.0 mph 89% 0 in
05:58 31.6 °F 28.5 °F 23.45 in Calm   -999.0 mph 88% 0 in
06:14 30.7 °F 27.8 °F 23.45 in Calm   -999.0 mph 89% 0 in
06:29 31.1 °F 28.8 °F 23.45 in Calm   -999.0 mph 91% 0 in
06:44 30.6 °F 28.3 °F 23.45 in Calm   -999.0 mph 91% 0 in
06:59 30.9 °F 28.3 °F 23.46 in Calm   -999.0 mph 90% 0 in
07:14 31.5 °F 29.4 °F 23.46 in Calm   -999.0 mph 92% 0 in
07:30 33.4 °F 30.8 °F 23.46 in Calm   -999.0 mph 90% 0 in
07:45 35.4 °F 31.6 °F 23.47 in Calm   -999.0 mph 86% 0 in
08:00 35.8 °F 32.3 °F 23.47 in Calm   -999.0 mph 87% 0 in
08:15 37.4 °F 33.6 °F 23.46 in Calm   -999.0 mph 86% 0 in
08:31 40.1 °F 35.4 °F 23.46 in Calm   -999.0 mph 83% 0 in
08:46 42.3 °F 36.9 °F 23.46 in Calm   -999.0 mph 81% 0 in
09:01 44.8 °F 36.7 °F 23.47 in Calm   -999.0 mph 73% 0 in
09:16 45.5 °F 36.3 °F 23.46 in Calm   -999.0 mph 70% 0 in
09:32 47.1 °F 36.7 °F 23.46 in Calm   -999.0 mph 67% 0 in
09:47 48.9 °F 36.9 °F 23.46 in NNE 2.2 mph -999.0 mph 63% 0 in
10:03 51.8 °F 36.1 °F 23.46 in ESE 1.7 mph -999.0 mph 55% 0 in
10:19 53.6 °F 36.9 °F 23.46 in NNW 1.7 mph -999.0 mph 53% 0 in
10:34 54.0 °F 36.3 °F 23.46 in NNW 2.2 mph -999.0 mph 51% 0 in
10:49 54.9 °F 36.6 °F 23.47 in NE 5.3 mph -999.0 mph 50% 0 in
11:07 54.7 °F 37.9 °F 23.47 in NNW 2.7 mph -999.0 mph 53% 0 in
11:22 56.3 °F 37.4 °F 23.47 in NNW 7.3 mph -999.0 mph 49% 0 in
11:38 56.3 °F 36.9 °F 23.46 in NNW 5.3 mph -999.0 mph 48% 0 in
11:55 55.9 °F 35.4 °F 23.46 in WNW 5.3 mph -999.0 mph 46% 0 in
12:13 57.0 °F 37.0 °F 23.46 in South 3.2 mph -999.0 mph 47% 0 in
12:28 56.7 °F 37.2 °F 23.45 in NW 3.2 mph -999.0 mph 48% 0 in
12:44 55.2 °F 36.9 °F 23.45 in SW 1.1 mph -999.0 mph 50% 0 in
12:59 56.1 °F 38.2 °F 23.45 in NE 4.2 mph -999.0 mph 51% 0 in
13:15 55.2 °F 37.9 °F 23.45 in SE 5.3 mph -999.0 mph 52% 0 in
13:30 53.4 °F 37.6 °F 23.45 in South 5.3 mph -999.0 mph 55% 0 in
13:46 53.4 °F 38.5 °F 23.45 in NW 2.7 mph -999.0 mph 57% 0 in
14:01 52.2 °F 37.9 °F 23.45 in South 3.7 mph -999.0 mph 58% 0 in
14:21 51.8 °F 38.4 °F 23.45 in NNW 4.7 mph -999.0 mph 60% 0 in
14:37 51.4 °F 38.4 °F 23.45 in NW 2.2 mph -999.0 mph 61% 0 in
14:52 51.4 °F 38.4 °F 23.45 in West 3.7 mph -999.0 mph 61% 0 in
15:07 51.1 °F 38.5 °F 23.45 in West 2.7 mph -999.0 mph 62% 0 in
15:22 51.1 °F 38.1 °F 23.45 in NNW 3.7 mph -999.0 mph 61% 0 in
15:39 51.1 °F 38.5 °F 23.45 in NW 4.2 mph -999.0 mph 62% 0 in
15:56 49.8 °F 38.5 °F 23.45 in Calm   -999.0 mph 65% 0 in
16:11 49.8 °F 38.5 °F 23.44 in West 2.2 mph -999.0 mph 65% 0 in
16:27 48.6 °F 38.5 °F 23.44 in NW 3.2 mph -999.0 mph 68% 0 in
16:42 48.2 °F 38.1 °F 23.45 in West 2.7 mph -999.0 mph 68% 0 in
16:57 47.1 °F 38.2 °F 23.44 in NNW 1.7 mph -999.0 mph 71% 0 in
17:12 46.2 °F 38.0 °F 23.44 in NE 1.1 mph -999.0 mph 73% 0 in
17:28 45.5 °F 38.0 °F 23.44 in South 1.7 mph -999.0 mph 75% 0 in
17:44 44.4 °F 37.3 °F 23.44 in Calm   -999.0 mph 76% 0 in
17:59 43.7 °F 37.6 °F 23.44 in Calm   -999.0 mph 79% 0 in
18:14 42.8 °F 37.1 °F 23.44 in Calm   -999.0 mph 80% 0 in
18:30 42.3 °F 36.9 °F 23.44 in Calm   -999.0 mph 81% 0 in
18:45 41.7 °F 36.6 °F 23.44 in SW 1.1 mph -999.0 mph 82% 0 in
19:00 41.0 °F 36.2 °F 23.44 in Calm   -999.0 mph 83% 0 in
19:15 40.6 °F 36.1 °F 23.45 in Calm   -999.0 mph 84% 0 in
19:30 40.3 °F 35.9 °F 23.45 in Calm   -999.0 mph 84% 0 in
19:45 39.6 °F 35.5 °F 23.45 in Calm   -999.0 mph 85% 0 in
20:01 39.4 °F 35.3 °F 23.45 in Calm   -999.0 mph 85% 0 in
20:16 38.5 °F 34.7 °F 23.44 in Calm   -999.0 mph 86% 0 in
20:31 38.3 °F 35.1 °F 23.45 in Calm   -999.0 mph 88% 0 in
20:48 38.3 °F 35.1 °F 23.45 in Calm   -999.0 mph 88% 0 in
21:03 39.0 °F 35.7 °F 23.45 in Calm   -999.0 mph 88% 0 in
21:19 38.7 °F 35.7 °F 23.45 in Calm   -999.0 mph 89% 0 in
21:34 38.5 °F 35.5 °F 23.45 in Calm   -999.0 mph 89% 0 in
21:50 38.8 °F 36.1 °F 23.45 in Calm   -999.0 mph 90% 0 in
22:07 39.2 °F 36.2 °F 23.45 in Calm   -999.0 mph 89% 0 in
22:22 39.0 °F 36.0 °F 23.45 in Calm   -999.0 mph 89% 0 in
22:37 39.2 °F 36.5 °F 23.45 in Calm   -999.0 mph 90% 0 in
22:52 39.2 °F 36.5 °F 23.44 in West 1.1 mph -999.0 mph 90% 0 in
23:10 39.4 °F 36.4 °F 23.45 in WNW 2.2 mph -999.0 mph 89% 0 in
23:25 39.2 °F 36.2 °F 23.44 in Calm   -999.0 mph 89% 0 in
23:40 38.7 °F 36.0 °F 23.44 in Calm   -999.0 mph 90% 0 in
23:56 39.0 °F 36.3 °F 23.43 in ENE 2.2 mph -999.0 mph 90% 0 in
Big Bear CA Weather